Time;durP1;ratioP1;P1;durP2;ratioP2;P2;SDS_P1;SDS_P2;PMS_P1;PMS_P2;Temp;Humidity;BMP_temperature;BMP_pressure;BME280_temperature;BME280_humidity;BME280_pressure;Samples;Min_cycle;Max_cycle;Signal;HPM_P1;HPM_P2
2022/11/23 00:00:01;;;;;;;5.20;1.40;;;10.30;99.90;;;;;;4953999;28;20659;-84
2022/11/23 00:02:26;;;;;;;5.22;1.38;;;10.40;99.90;;;;;;4937676;29;20177;-83
2022/11/23 00:04:52;;;;;;;9.27;1.65;;;10.30;99.90;;;;;;4955129;28;20167;-85
2022/11/23 00:07:17;;;;;;;3.50;1.40;;;10.30;99.90;;;;;;4937604;29;20190;-84
2022/11/23 00:09:43;;;;;;;8.60;1.50;;;10.20;99.90;;;;;;4954000;28;20327;-85
2022/11/23 00:12:08;;;;;;;7.00;1.55;;;10.20;99.90;;;;;;4955117;28;20217;-85
2022/11/23 00:14:34;;;;;;;9.40;1.85;;;10.30;99.90;;;;;;4954912;28;20525;-85
2022/11/23 00:17:00;;;;;;;13.85;1.80;;;10.30;99.90;;;;;;4955134;29;20178;-84
2022/11/23 00:19:25;;;;;;;5.55;1.83;;;10.20;99.90;;;;;;4955048;29;20186;-82
2022/11/23 00:21:51;;;;;;;4.10;1.10;;;10.20;99.90;;;;;;4955013;28;20194;-85
2022/11/23 00:24:16;;;;;;;8.48;1.45;;;10.20;99.90;;;;;;4937775;28;20313;-81
2022/11/23 00:26:42;;;;;;;11.70;1.70;;;10.20;99.90;;;;;;4956938;28;20183;-86
2022/11/23 00:29:07;;;;;;;16.42;2.30;;;10.30;99.90;;;;;;4958260;28;20195;-83
2022/11/23 00:31:33;;;;;;;15.63;2.28;;;10.30;99.90;;;;;;4957949;28;21040;-81
2022/11/23 00:34:01;;;;;;;8.55;1.98;;;10.20;99.90;;;;;;4964130;28;20175;-83
2022/11/23 00:36:27;;;;;;;10.70;1.88;;;10.30;99.90;;;;;;4961858;28;20202;-85
2022/11/23 00:38:53;;;;;;;11.20;1.88;;;10.20;99.90;;;;;;4960690;28;20201;-79
2022/11/23 00:41:22;;;;;;;13.40;1.98;;;10.30;99.90;;;;;;4962356;28;20209;-79
2022/11/23 00:43:48;;;;;;;16.45;1.95;;;10.30;99.90;;;;;;4960257;28;20196;-85
2022/11/23 00:46:24;;;;;;;7.60;1.60;;;10.30;99.90;;;;;;4959877;28;20174;-81
2022/11/23 00:48:52;;;;;;;10.48;2.25;;;10.30;99.90;;;;;;4944038;28;20193;-80
2022/11/23 00:51:27;;;;;;;10.68;1.90;;;10.40;99.90;;;;;;4961034;28;20216;-86
2022/11/23 00:53:53;;;;;;;5.30;1.80;;;10.30;99.90;;;;;;4962122;28;20178;-79
2022/11/23 00:56:19;;;;;;;6.20;1.38;;;10.10;99.90;;;;;;4942358;28;20632;-80
2022/11/23 00:58:53;;;;;;;9.30;1.95;;;10.00;99.90;;;;;;4961846;28;20655;-82
2022/11/23 01:01:21;;;;;;;4.55;1.55;;;10.20;99.90;;;;;;4942154;28;20178;-83
2022/11/23 01:03:52;;;;;;;12.45;1.88;;;10.20;99.90;;;;;;4957968;28;20535;-80
2022/11/23 01:06:23;;;;;;;13.40;1.73;;;10.20;99.90;;;;;;4959854;28;20714;-79
2022/11/23 01:09:01;;;;;;;15.00;2.20;;;10.20;99.90;;;;;;4964989;29;20202;-82
2022/11/23 01:11:31;;;;;;;7.90;1.75;;;10.20;99.90;;;;;;4966978;29;20194;-80
2022/11/23 01:13:57;;;;;;;7.90;1.83;;;10.00;99.90;;;;;;4951293;29;20182;-85
2022/11/23 01:16:25;;;;;;;7.57;1.40;;;9.90;99.90;;;;;;4966017;28;20173;-87
2022/11/23 01:18:55;;;;;;;8.75;1.75;;;9.90;99.90;;;;;;4961805;28;20194;-80
2022/11/23 01:21:23;;;;;;;16.63;2.20;;;10.00;99.90;;;;;;4946780;28;20549;-78
2022/11/23 01:23:48;;;;;;;11.45;1.77;;;10.10;99.90;;;;;;4965912;28;20166;-84
2022/11/23 01:26:14;;;;;;;7.25;1.52;;;10.20;99.90;;;;;;4957823;28;20648;-86
2022/11/23 01:28:40;;;;;;;7.80;1.48;;;10.10;99.90;;;;;;4957540;28;20620;-82
2022/11/23 01:31:08;;;;;;;7.03;1.58;;;10.20;99.90;;;;;;4957376;28;20201;-79
2022/11/23 01:33:34;;;;;;;5.78;2.08;;;10.20;99.90;;;;;;4957986;28;20652;-85
2022/11/23 01:36:07;;;;;;;8.55;1.58;;;10.20;99.90;;;;;;4957768;28;20178;-86
2022/11/23 01:38:32;;;;;;;3.85;1.50;;;10.20;99.90;;;;;;4956737;28;20632;-85
2022/11/23 01:40:58;;;;;;;10.90;2.42;;;10.30;99.90;;;;;;4957502;28;20181;-85
2022/11/23 01:43:23;;;;;;;5.07;1.58;;;10.30;99.90;;;;;;4957592;28;20223;-82
2022/11/23 01:45:52;;;;;;;6.95;1.40;;;10.10;99.90;;;;;;4957824;28;20182;-84
2022/11/23 01:48:29;;;;;;;5.47;1.63;;;10.20;99.90;;;;;;4958142;28;20620;-85
2022/11/23 01:50:57;;;;;;;9.38;2.38;;;10.30;99.90;;;;;;4957559;28;20205;-85
2022/11/23 01:53:23;;;;;;;9.43;1.92;;;10.40;99.90;;;;;;4956258;29;20179;-84
2022/11/23 01:55:51;;;;;;;10.48;1.63;;;10.40;99.90;;;;;;4939546;28;20194;-85
2022/11/23 01:58:21;;;;;;;8.65;2.35;;;10.40;99.90;;;;;;4957559;28;20195;-79
2022/11/23 02:00:48;;;;;;;13.27;2.10;;;10.30;99.90;;;;;;4957030;28;20187;-85
2022/11/23 02:03:14;;;;;;;5.80;1.55;;;10.30;99.90;;;;;;4957090;28;20167;-84
2022/11/23 02:05:44;;;;;;;6.45;1.50;;;10.40;99.90;;;;;;4939401;28;20170;-82
2022/11/23 02:08:11;;;;;;;6.15;1.80;;;10.50;99.90;;;;;;4956876;28;20171;-85
2022/11/23 02:10:37;;;;;;;15.80;1.98;;;10.50;99.90;;;;;;4957187;28;20221;-85
2022/11/23 02:13:06;;;;;;;13.43;2.00;;;10.40;99.90;;;;;;4956806;28;20210;-84
2022/11/23 02:15:34;;;;;;;9.48;1.80;;;10.30;99.90;;;;;;4956400;28;20624;-86
2022/11/23 02:18:01;;;;;;;8.70;1.63;;;10.30;99.90;;;;;;4956506;28;20249;-80
2022/11/23 02:20:27;;;;;;;12.80;1.73;;;10.40;99.90;;;;;;4956326;28;20222;-80
2022/11/23 02:23:04;;;;;;;7.50;1.75;;;10.50;99.90;;;;;;4956360;28;20206;-86
2022/11/23 02:25:42;;;;;;;11.13;2.05;;;10.40;99.90;;;;;;4956678;28;20178;-85
2022/11/23 02:28:09;;;;;;;8.00;1.90;;;10.40;99.90;;;;;;4956274;28;20178;-82
2022/11/23 02:30:38;;;;;;;24.65;2.20;;;10.40;99.90;;;;;;4956045;28;20213;-87
2022/11/23 02:33:05;;;;;;;16.58;1.75;;;10.40;99.90;;;;;;4956187;28;20628;-80
2022/11/23 02:35:32;;;;;;;18.23;3.00;;;10.30;99.90;;;;;;4939567;28;20163;-86
2022/11/23 02:38:00;;;;;;;17.02;3.03;;;10.40;99.90;;;;;;4956692;28;20166;-86
2022/11/23 02:40:33;;;;;;;12.52;2.05;;;10.30;99.90;;;;;;4956604;28;20575;-81
2022/11/23 02:42:59;;;;;;;11.15;2.17;;;10.20;99.90;;;;;;4964966;28;20174;-86
2022/11/23 02:45:45;;;;;;;5.53;1.55;;;10.20;99.90;;;;;;4972902;28;20250;-81
2022/11/23 02:48:11;;;;;;;11.70;2.00;;;10.20;99.90;;;;;;4968226;28;20230;-82
2022/11/23 02:50:36;;;;;;;8.68;2.15;;;10.10;99.90;;;;;;4943897;28;20611;-78
2022/11/23 02:53:02;;;;;;;11.07;1.63;;;10.20;99.90;;;;;;4956370;28;20210;-84
2022/11/23 02:55:28;;;;;;;5.85;1.73;;;10.20;99.90;;;;;;4956082;28;20176;-84
2022/11/23 02:57:53;;;;;;;16.95;2.30;;;10.20;99.90;;;;;;4938262;29;20651;-81
2022/11/23 03:00:19;;;;;;;10.10;1.95;;;10.20;99.90;;;;;;4938123;28;20201;-82
2022/11/23 03:02:45;;;;;;;9.13;2.75;;;10.20;99.90;;;;;;4955517;28;20257;-81
2022/11/23 03:05:10;;;;;;;10.70;1.75;;;10.40;99.90;;;;;;4954025;28;20191;-83
2022/11/23 03:07:36;;;;;;;3.30;1.10;;;10.30;99.90;;;;;;4938001;29;20648;-79
2022/11/23 03:10:02;;;;;;;6.30;1.92;;;10.30;99.90;;;;;;4954038;29;20685;-84
2022/11/23 03:12:28;;;;;;;5.07;1.50;;;10.10;99.90;;;;;;4955523;28;20260;-80
2022/11/23 03:14:54;;;;;;;4.07;1.75;;;10.10;99.90;;;;;;4955361;29;20575;-84
2022/11/23 03:17:19;;;;;;;11.73;1.88;;;10.30;99.90;;;;;;4954233;28;20186;-84
2022/11/23 03:19:45;;;;;;;7.60;1.60;;;10.20;99.90;;;;;;4955173;28;20191;-81
2022/11/23 03:22:11;;;;;;;9.98;1.92;;;10.10;99.90;;;;;;4955175;28;20528;-80
2022/11/23 03:24:36;;;;;;;3.33;1.50;;;10.00;99.90;;;;;;4938204;28;20653;-84
2022/11/23 03:27:02;;;;;;;12.85;1.65;;;10.20;99.90;;;;;;4955072;28;20163;-84
2022/11/23 03:29:27;;;;;;;20.00;2.58;;;10.20;99.90;;;;;;4954943;28;20799;-81
2022/11/23 03:31:53;;;;;;;14.98;2.10;;;10.30;99.90;;;;;;4937587;29;20210;-82
2022/11/23 03:34:19;;;;;;;3.22;1.30;;;10.20;99.90;;;;;;4954971;28;20225;-85
2022/11/23 03:36:45;;;;;;;16.48;3.40;;;10.40;99.90;;;;;;4954852;28;20225;-83
2022/11/23 03:39:10;;;;;;;6.35;1.50;;;10.40;99.90;;;;;;4937578;29;20659;-86
2022/11/23 03:41:36;;;;;;;8.23;2.13;;;10.40;99.90;;;;;;4954963;29;20170;-83
2022/11/23 03:44:03;;;;;;;11.10;1.95;;;10.40;99.90;;;;;;4955280;28;20180;-84
2022/11/23 03:46:29;;;;;;;10.60;1.65;;;10.30;99.90;;;;;;4955549;28;20201;-80
2022/11/23 03:48:55;;;;;;;7.53;1.95;;;10.30;99.90;;;;;;4955167;28;20245;-83
2022/11/23 03:51:20;;;;;;;17.58;1.85;;;10.20;99.90;;;;;;4937669;28;20242;-86
2022/11/23 03:53:46;;;;;;;7.72;2.28;;;10.20;99.90;;;;;;4954603;28;20250;-83
2022/11/23 03:56:11;;;;;;;5.18;1.98;;;10.40;99.90;;;;;;4955301;28;20206;-80
2022/11/23 03:58:37;;;;;;;3.47;1.45;;;10.30;99.90;;;;;;4955122;28;20190;-80
2022/11/23 04:01:03;;;;;;;9.05;2.05;;;10.20;99.90;;;;;;4956283;28;20162;-86
2022/11/23 04:03:28;;;;;;;8.95;2.25;;;10.00;99.90;;;;;;4959027;29;20185;-83
2022/11/23 04:05:54;;;;;;;12.48;1.98;;;9.90;99.90;;;;;;4958878;28;20545;-82
2022/11/23 04:08:19;;;;;;;28.88;2.50;;;9.70;99.90;;;;;;4957492;28;20189;-84
2022/11/23 04:10:45;;;;;;;15.82;2.13;;;9.80;99.90;;;;;;4958718;28;20190;-84
2022/11/23 04:13:10;;;;;;;23.20;2.22;;;9.90;99.90;;;;;;4957580;29;20272;-83
2022/11/23 04:15:36;;;;;;;17.08;2.60;;;9.80;99.90;;;;;;4958569;28;20197;-80
2022/11/23 04:18:02;;;;;;;14.18;2.78;;;9.90;99.90;;;;;;4957457;28;20636;-80
2022/11/23 04:20:27;;;;;;;9.65;2.35;;;10.20;99.90;;;;;;4957095;28;20202;-83
2022/11/23 04:22:53;;;;;;;13.82;2.40;;;10.10;99.90;;;;;;4958576;28;20641;-85
2022/11/23 04:25:19;;;;;;;12.35;2.05;;;10.10;99.90;;;;;;4958241;28;20178;-80
2022/11/23 04:27:45;;;;;;;9.13;2.40;;;10.10;99.90;;;;;;4958341;28;20205;-85
2022/11/23 04:30:11;;;;;;;15.30;2.83;;;10.20;99.90;;;;;;4958337;28;20584;-85
2022/11/23 04:32:36;;;;;;;6.25;2.08;;;10.10;99.90;;;;;;4958517;28;20218;-84
2022/11/23 04:35:02;;;;;;;11.38;2.58;;;10.10;99.90;;;;;;4958498;28;20175;-80
2022/11/23 04:37:28;;;;;;;16.25;3.25;;;9.90;99.90;;;;;;4958437;28;20175;-84
2022/11/23 04:39:53;;;;;;;23.77;3.03;;;9.90;99.90;;;;;;4958108;28;20187;-81
2022/11/23 04:42:19;;;;;;;20.65;2.17;;;10.10;99.90;;;;;;4956594;28;20225;-82
2022/11/23 04:44:45;;;;;;;15.80;2.42;;;10.20;99.90;;;;;;4958506;28;20224;-79
2022/11/23 04:47:11;;;;;;;12.57;2.40;;;10.10;99.90;;;;;;4958321;28;20167;-81
2022/11/23 04:49:36;;;;;;;12.55;2.45;;;10.10;99.90;;;;;;4957953;28;20194;-79
2022/11/23 04:52:02;;;;;;;16.88;2.70;;;10.00;99.90;;;;;;4958048;28;20202;-82
2022/11/23 04:54:28;;;;;;;10.40;3.13;;;10.10;99.90;;;;;;4957937;28;20166;-82
2022/11/23 04:56:54;;;;;;;20.77;2.38;;;10.10;99.90;;;;;;4957742;28;20262;-82
2022/11/23 04:59:19;;;;;;;12.05;3.00;;;10.00;99.90;;;;;;4957927;28;20635;-81
2022/11/23 05:01:45;;;;;;;7.07;2.65;;;10.00;99.90;;;;;;4957889;28;20200;-80
2022/11/23 05:04:10;;;;;;;8.32;2.33;;;9.80;99.90;;;;;;4957251;28;20179;-80
2022/11/23 05:06:36;;;;;;;10.40;2.75;;;9.70;99.90;;;;;;4940602;28;20176;-81
2022/11/23 05:09:02;;;;;;;18.83;2.33;;;9.60;99.90;;;;;;4957316;28;20274;-82
2022/11/23 05:11:27;;;;;;;6.15;1.50;;;9.60;99.90;;;;;;4956581;28;20648;-81
2022/11/23 05:13:53;;;;;;;12.60;2.33;;;9.60;99.90;;;;;;4940116;29;20206;-86
2022/11/23 05:16:18;;;;;;;9.32;1.88;;;9.50;99.90;;;;;;4955890;28;20569;-84
2022/11/23 05:18:44;;;;;;;9.32;2.90;;;9.40;99.90;;;;;;4955721;28;20179;-85
2022/11/23 05:21:09;;;;;;;10.88;1.65;;;9.40;99.90;;;;;;4957009;28;20678;-84
2022/11/23 05:23:35;;;;;;;10.70;2.25;;;9.30;99.90;;;;;;4957214;28;20170;-83
2022/11/23 05:26:00;;;;;;;9.55;2.25;;;9.30;99.90;;;;;;4957041;28;20179;-82
2022/11/23 05:28:26;;;;;;;15.38;2.58;;;9.20;99.90;;;;;;4957176;28;20257;-85
2022/11/23 05:30:52;;;;;;;17.80;2.58;;;9.20;99.90;;;;;;4956574;28;20198;-84
2022/11/23 05:33:18;;;;;;;8.93;2.20;;;9.10;99.90;;;;;;4955486;28;20174;-80
2022/11/23 05:35:43;;;;;;;10.45;2.08;;;9.00;99.90;;;;;;4956920;28;20174;-83
2022/11/23 05:38:09;;;;;;;8.75;2.47;;;9.10;99.90;;;;;;4956517;28;20177;-80
2022/11/23 05:40:35;;;;;;;14.02;1.60;;;9.10;99.90;;;;;;4955217;28;20194;-84
2022/11/23 05:43:00;;;;;;;15.05;2.40;;;9.10;99.90;;;;;;4956781;28;20639;-86
2022/11/23 05:45:26;;;;;;;12.85;2.08;;;9.10;99.90;;;;;;4956479;28;20178;-80
2022/11/23 05:47:54;;;;;;;11.88;2.42;;;9.00;99.90;;;;;;4956701;28;20166;-83
2022/11/23 05:50:21;;;;;;;9.13;2.42;;;8.90;99.90;;;;;;4956363;28;20190;-82
2022/11/23 05:52:46;;;;;;;6.13;2.83;;;8.90;99.90;;;;;;4956606;28;20202;-82
2022/11/23 05:55:12;;;;;;;10.60;1.95;;;8.80;99.90;;;;;;4957343;28;20215;-80
2022/11/23 05:57:38;;;;;;;9.43;2.60;;;8.90;99.90;;;;;;4955505;28;20191;-84
2022/11/23 06:00:05;;;;;;;15.70;2.05;;;9.00;99.90;;;;;;4955948;28;20191;-85
2022/11/23 06:02:31;;;;;;;10.85;2.25;;;9.10;99.90;;;;;;4957322;28;20166;-84
2022/11/23 06:04:56;;;;;;;22.38;3.28;;;8.90;99.90;;;;;;4973923;28;20171;-80
2022/11/23 06:07:22;;;;;;;16.88;2.55;;;8.90;99.90;;;;;;4957389;28;20238;-79
2022/11/23 06:09:47;;;;;;;16.48;2.42;;;8.90;99.90;;;;;;4969004;28;20190;-80
2022/11/23 06:12:13;;;;;;;14.65;2.13;;;8.90;99.90;;;;;;4958512;28;20217;-81
2022/11/23 06:14:39;;;;;;;10.80;2.83;;;9.00;99.90;;;;;;4957884;28;20171;-83
2022/11/23 06:17:04;;;;;;;11.50;2.03;;;9.10;99.90;;;;;;4956088;28;20253;-80
2022/11/23 06:19:30;;;;;;;16.48;2.05;;;9.10;99.90;;;;;;4956066;28;20249;-82
2022/11/23 06:21:56;;;;;;;11.45;2.40;;;9.00;99.90;;;;;;4956013;28;20170;-79
2022/11/23 06:24:23;;;;;;;19.48;3.58;;;9.00;99.90;;;;;;4955636;28;20632;-80
2022/11/23 06:26:52;;;;;;;17.75;2.20;;;8.90;99.90;;;;;;4937878;28;20269;-79
2022/11/23 06:29:21;;;;;;;16.02;2.65;;;8.90;99.90;;;;;;4955123;28;20186;-79
2022/11/23 06:31:47;;;;;;;12.63;2.38;;;8.80;99.90;;;;;;4937553;28;20202;-79
2022/11/23 06:34:13;;;;;;;14.65;2.22;;;8.80;99.90;;;;;;4954835;28;20254;-79
2022/11/23 06:36:39;;;;;;;10.52;2.15;;;8.70;99.90;;;;;;4955321;28;20644;-78
2022/11/23 06:39:04;;;;;;;9.38;2.13;;;8.70;99.90;;;;;;4955904;28;20202;-79
2022/11/23 06:41:30;;;;;;;18.27;1.80;;;8.80;99.90;;;;;;4955746;28;20619;-84
2022/11/23 06:43:56;;;;;;;11.00;2.45;;;8.60;99.90;;;;;;4956428;29;20222;-85
2022/11/23 06:46:21;;;;;;;17.90;2.47;;;8.60;99.90;;;;;;4938757;28;20193;-85
2022/11/23 06:48:47;;;;;;;4.90;1.70;;;8.60;99.90;;;;;;4955601;28;20592;-80
2022/11/23 06:51:14;;;;;;;6.07;2.90;;;8.60;99.90;;;;;;4938507;29;20209;-82
2022/11/23 06:53:40;;;;;;;13.35;2.67;;;8.50;99.90;;;;;;4938135;28;20232;-81
2022/11/23 06:56:06;;;;;;;10.63;2.17;;;8.40;99.90;;;;;;4955494;28;20585;-80
2022/11/23 06:58:31;;;;;;;12.48;2.65;;;8.40;99.90;;;;;;4938637;29;20194;-80
2022/11/23 07:01:05;;;;;;;12.48;2.25;;;8.50;99.90;;;;;;4955240;28;20178;-81
2022/11/23 07:03:31;;;;;;;12.23;2.35;;;8.40;99.90;;;;;;4955973;28;20233;-82
2022/11/23 07:05:56;;;;;;;11.60;2.92;;;8.40;99.90;;;;;;4937504;28;20261;-80
2022/11/23 07:08:22;;;;;;;9.52;2.53;;;8.30;99.90;;;;;;4937561;29;20653;-83
2022/11/23 07:10:48;;;;;;;10.98;3.53;;;8.20;99.90;;;;;;4954858;28;20190;-80
2022/11/23 07:13:14;;;;;;;16.63;2.83;;;8.20;99.90;;;;;;4955469;28;20202;-81
2022/11/23 07:15:41;;;;;;;11.38;1.85;;;8.20;99.90;;;;;;4955000;28;20166;-82
2022/11/23 07:18:08;;;;;;;13.75;2.60;;;8.30;99.90;;;;;;4955003;28;20237;-84
2022/11/23 07:20:34;;;;;;;8.05;2.08;;;8.30;99.90;;;;;;4954578;28;20619;-81
2022/11/23 07:23:00;;;;;;;11.95;3.15;;;8.30;99.90;;;;;;4954585;28;20179;-84
2022/11/23 07:25:31;;;;;;;10.75;2.10;;;8.30;99.90;;;;;;4954405;28;20230;-81
2022/11/23 07:27:57;;;;;;;6.05;1.85;;;8.20;99.90;;;;;;4954922;28;20515;-84
2022/11/23 07:30:24;;;;;;;11.80;2.15;;;8.30;99.90;;;;;;4954265;28;20190;-81
2022/11/23 07:32:50;;;;;;;10.93;2.55;;;8.20;99.90;;;;;;4955027;28;20578;-83
2022/11/23 07:35:17;;;;;;;9.98;3.22;;;8.10;99.90;;;;;;4937642;29;20174;-83
2022/11/23 07:37:42;;;;;;;19.70;4.18;;;8.00;99.90;;;;;;4941576;28;20715;-82
2022/11/23 07:40:09;;;;;;;22.45;2.17;;;8.00;99.90;;;;;;4941110;28;20186;-81
2022/11/23 07:42:34;;;;;;;13.73;3.47;;;8.10;99.90;;;;;;4958366;28;20530;-84
2022/11/23 07:45:00;;;;;;;23.20;3.10;;;8.00;99.90;;;;;;4958659;28;20177;-85
2022/11/23 07:47:25;;;;;;;14.02;3.10;;;7.90;99.90;;;;;;4958824;28;20174;-82
2022/11/23 07:49:51;;;;;;;9.20;1.35;;;7.90;99.90;;;;;;4958447;28;20725;-81
2022/11/23 07:52:17;;;;;;;20.75;3.03;;;7.90;99.90;;;;;;4973604;28;20599;-82
2022/11/23 07:54:42;;;;;;;20.45;2.60;;;7.90;99.90;;;;;;4977477;28;20170;-80
2022/11/23 07:57:08;;;;;;;12.25;2.40;;;8.00;99.90;;;;;;4977880;28;20620;-82
2022/11/23 07:59:33;;;;;;;12.75;3.55;;;8.10;99.90;;;;;;4960169;28;20190;-81
2022/11/23 08:01:59;;;;;;;21.70;3.40;;;8.10;99.90;;;;;;4977252;28;20583;-83
2022/11/23 08:04:25;;;;;;;17.02;2.28;;;8.20;99.90;;;;;;4977274;28;20178;-82
2022/11/23 08:06:52;;;;;;;8.07;2.20;;;8.20;99.90;;;;;;4960161;28;20174;-80
2022/11/23 08:09:18;;;;;;;11.95;2.67;;;8.10;99.90;;;;;;4977279;28;20182;-81
2022/11/23 08:11:44;;;;;;;14.55;2.95;;;8.20;99.90;;;;;;4977251;28;20209;-83
2022/11/23 08:14:10;;;;;;;15.88;2.67;;;8.20;99.90;;;;;;4960133;28;20653;-80
2022/11/23 08:16:36;;;;;;;11.48;2.53;;;8.30;99.90;;;;;;4977041;28;20270;-80
2022/11/23 08:19:02;;;;;;;15.75;3.15;;;8.50;99.90;;;;;;4977274;28;20670;-79
2022/11/23 08:21:27;;;;;;;6.78;2.05;;;8.60;99.90;;;;;;4977169;28;20166;-83
2022/11/23 08:23:53;;;;;;;11.90;2.67;;;8.70;99.90;;;;;;4960331;28;20174;-80
2022/11/23 08:26:18;;;;;;;13.68;2.45;;;8.80;99.90;;;;;;4977104;28;20334;-82
2022/11/23 08:28:44;;;;;;;8.90;2.33;;;8.80;99.90;;;;;;4976905;28;20170;-79
2022/11/23 08:31:10;;;;;;;9.20;2.00;;;8.80;99.90;;;;;;4976871;28;20645;-80
2022/11/23 08:33:36;;;;;;;6.85;2.58;;;9.00;99.90;;;;;;4977047;28;20670;-82
2022/11/23 08:36:07;;;;;;;10.50;2.08;;;9.00;99.90;;;;;;4977304;28;20162;-84
2022/11/23 08:38:33;;;;;;;8.60;2.45;;;9.00;99.90;;;;;;4959864;28;20226;-83
2022/11/23 08:41:04;;;;;;;12.98;2.13;;;9.10;99.90;;;;;;4976187;28;20786;-80
2022/11/23 08:43:30;;;;;;;4.45;2.05;;;9.10;99.90;;;;;;4972873;28;20177;-83
2022/11/23 08:45:57;;;;;;;7.00;2.13;;;9.20;99.90;;;;;;4958406;28;20530;-84
2022/11/23 08:48:23;;;;;;;16.30;2.55;;;9.40;99.90;;;;;;4975515;28;20529;-83
2022/11/23 08:50:48;;;;;;;10.18;2.08;;;9.30;99.90;;;;;;4959016;28;20194;-82
2022/11/23 08:53:14;;;;;;;9.02;2.08;;;9.30;99.90;;;;;;4974049;28;20241;-84
2022/11/23 08:55:39;;;;;;;7.00;2.22;;;9.40;99.90;;;;;;4976841;28;20619;-81
2022/11/23 08:58:07;;;;;;;6.10;1.90;;;9.40;99.90;;;;;;4976940;28;20190;-84
2022/11/23 09:00:32;;;;;;;12.10;2.97;;;9.40;99.90;;;;;;4976658;28;20744;-81
2022/11/23 09:02:58;;;;;;;8.98;2.75;;;9.30;99.90;;;;;;4959535;28;20176;-82
2022/11/23 09:05:25;;;;;;;11.07;2.35;;;9.30;99.90;;;;;;4959357;28;20173;-82
2022/11/23 09:07:51;;;;;;;11.43;2.75;;;9.40;99.90;;;;;;4976352;28;20243;-80
2022/11/23 09:10:17;;;;;;;7.10;1.65;;;9.30;99.90;;;;;;4974503;28;20342;-81
2022/11/23 09:12:42;;;;;;;11.02;2.10;;;9.40;99.90;;;;;;4975259;28;20217;-81
2022/11/23 09:15:08;;;;;;;8.68;2.03;;;9.50;99.90;;;;;;4962827;28;20690;-80
2022/11/23 09:17:34;;;;;;;4.80;1.77;;;9.50;99.90;;;;;;4956871;28;20542;-81
2022/11/23 09:20:00;;;;;;;12.73;2.83;;;9.40;99.90;;;;;;4961845;28;20201;-84
2022/11/23 09:22:26;;;;;;;11.48;1.80;;;9.30;99.90;;;;;;4956062;28;20167;-84
2022/11/23 09:24:52;;;;;;;18.42;2.05;;;9.30;99.90;;;;;;4957245;28;20174;-87
2022/11/23 09:27:18;;;;;;;7.97;2.40;;;9.30;99.90;;;;;;4957254;28;20512;-83
2022/11/23 09:29:43;;;;;;;10.27;1.92;;;9.40;99.90;;;;;;4939759;29;20194;-87
2022/11/23 09:32:09;;;;;;;11.32;1.70;;;9.60;99.90;;;;;;4962131;28;20233;-83
2022/11/23 09:34:35;;;;;;;4.53;2.40;;;9.60;99.90;;;;;;4970897;28;20649;-81
2022/11/23 09:37:00;;;;;;;12.23;2.08;;;9.60;99.90;;;;;;4971720;29;20163;-81
2022/11/23 09:39:26;;;;;;;6.20;1.70;;;9.50;99.90;;;;;;4973175;28;20186;-81
2022/11/23 09:42:28;;;;;;;4.93;1.60;;;9.60;99.90;;;;;;4973164;28;20233;-86
2022/11/23 09:45:36;;;;;;;10.63;2.38;;;9.60;99.90;;;;;;4973654;29;20177;-84
2022/11/23 09:48:23;;;;;;;10.10;2.15;;;9.60;99.90;;;;;;4932026;29;20186;-85
2022/11/23 09:50:59;;;;;;;8.75;1.55;;;9.60;99.90;;;;;;4966916;28;20658;-84
2022/11/23 09:53:41;;;;;;;13.88;2.30;;;9.70;99.90;;;;;;4967714;28;20209;-83
2022/11/23 09:56:28;;;;;;;8.73;1.77;;;10.00;99.90;;;;;;4953128;28;20171;-81
2022/11/23 09:58:58;;;;;;;7.43;1.85;;;10.10;99.90;;;;;;4969673;28;20205;-84
2022/11/23 10:01:26;;;;;;;5.13;1.42;;;10.00;99.90;;;;;;4971365;28;20194;-86
2022/11/23 10:03:52;;;;;;;6.85;2.30;;;10.10;99.90;;;;;;4946975;29;20171;-85
2022/11/23 10:06:25;;;;;;;18.77;2.40;;;10.20;99.90;;;;;;4957482;28;20286;-85
2022/11/23 10:09:00;;;;;;;2.55;1.50;;;10.30;99.90;;;;;;4956375;28;20177;-85
2022/11/23 10:11:32;;;;;;;8.52;1.52;;;10.30;99.90;;;;;;4957315;28;20190;-84
2022/11/23 10:14:04;;;;;;;13.20;2.15;;;10.30;99.90;;;;;;4956617;28;20190;-84
2022/11/23 10:16:36;;;;;;;5.75;1.65;;;10.40;99.90;;;;;;4957277;28;20640;-84
2022/11/23 10:19:10;;;;;;;11.15;2.65;;;10.20;99.90;;;;;;4956720;28;20190;-85
2022/11/23 10:21:45;;;;;;;7.32;1.52;;;10.00;99.90;;;;;;4956475;28;20198;-85
2022/11/23 10:24:18;;;;;;;8.63;1.60;;;10.00;99.90;;;;;;4940161;28;20180;-84
2022/11/23 10:26:47;;;;;;;4.80;1.42;;;10.00;99.90;;;;;;4958135;28;20162;-84
2022/11/23 10:29:24;;;;;;;5.50;1.55;;;9.90;99.90;;;;;;4955948;28;20225;-85
2022/11/23 10:31:51;;;;;;;2.95;1.67;;;10.00;99.90;;;;;;4956272;28;20214;-84
2022/11/23 10:34:29;;;;;;;8.38;1.60;;;10.20;99.90;;;;;;4956035;28;20178;-84
2022/11/23 10:36:55;;;;;;;6.25;1.55;;;10.20;99.90;;;;;;4939546;28;20600;-85
2022/11/23 10:39:26;;;;;;;7.97;1.88;;;10.20;99.90;;;;;;4955785;28;20194;-85
2022/11/23 10:41:53;;;;;;;2.72;1.48;;;10.40;99.90;;;;;;4939226;29;20533;-86
2022/11/23 10:44:28;;;;;;;9.00;1.45;;;10.40;99.90;;;;;;4955851;28;20182;-86
2022/11/23 10:46:54;;;;;;;9.57;1.67;;;10.60;99.90;;;;;;4956070;28;20170;-85
2022/11/23 10:49:25;;;;;;;7.80;1.92;;;10.60;99.90;;;;;;4956529;28;20249;-84
2022/11/23 10:51:50;;;;;;;9.05;1.58;;;10.40;99.90;;;;;;4938949;29;20223;-84
2022/11/23 10:54:22;;;;;;;4.40;2.10;;;10.40;99.90;;;;;;4938643;29;20167;-84
2022/11/23 10:56:49;;;;;;;7.70;1.40;;;10.40;99.90;;;;;;4955287;28;20186;-85
2022/11/23 10:59:36;;;;;;;7.75;2.40;;;10.50;99.90;;;;;;4955026;28;20593;-85
2022/11/23 11:02:18;;;;;;;4.72;1.45;;;10.60;99.90;;;;;;4941187;28;20200;-85
2022/11/23 11:04:45;;;;;;;8.10;1.88;;;10.80;99.90;;;;;;4948388;29;20523;-85
2022/11/23 11:07:28;;;;;;;8.40;2.15;;;11.00;99.90;;;;;;4964076;28;20171;-82
2022/11/23 11:09:59;;;;;;;5.32;1.67;;;11.00;99.90;;;;;;4956156;28;20187;-79
2022/11/23 11:12:27;;;;;;;13.38;2.28;;;10.90;99.90;;;;;;4937206;29;20264;-80
2022/11/23 11:15:02;;;;;;;7.55;2.60;;;11.00;99.90;;;;;;4936999;28;20162;-80
2022/11/23 11:17:34;;;;;;;7.10;1.83;;;11.10;99.90;;;;;;4936851;29;20236;-83
2022/11/23 11:20:21;;;;;;;24.70;2.22;;;11.30;99.90;;;;;;4936385;28;20663;-83
2022/11/23 11:22:47;;;;;;;9.93;1.67;;;11.40;99.90;;;;;;4954190;28;20546;-79
2022/11/23 11:25:29;;;;;;;13.23;2.33;;;11.50;99.90;;;;;;4955455;28;20162;-85
2022/11/23 11:27:55;;;;;;;2.30;1.55;;;11.60;99.90;;;;;;4941496;28;20170;-83
2022/11/23 11:30:33;;;;;;;8.43;1.50;;;11.70;99.90;;;;;;4938733;29;20226;-82
2022/11/23 11:33:21;;;;;;;6.40;1.55;;;11.70;99.90;;;;;;4937967;29;20229;-86
2022/11/23 11:35:51;;;;;;;7.35;1.50;;;11.80;99.90;;;;;;4937835;28;20253;-87
2022/11/23 11:38:34;;;;;;;6.50;1.33;;;11.60;99.90;;;;;;4955081;28;20230;-86
2022/11/23 11:41:07;;;;;;;6.05;1.48;;;11.60;99.90;;;;;;4937701;28;20166;-86
2022/11/23 11:43:41;;;;;;;3.58;1.80;;;11.80;99.90;;;;;;4937427;28;20225;-82
2022/11/23 11:46:22;;;;;;;3.92;1.63;;;11.80;99.90;;;;;;4954916;28;20175;-83
2022/11/23 11:48:56;;;;;;;5.57;1.55;;;11.90;99.90;;;;;;4936778;28;20189;-83
2022/11/23 11:51:36;;;;;;;7.72;1.92;;;12.00;99.90;;;;;;4954138;28;20203;-82
2022/11/23 11:54:11;;;;;;;24.80;1.52;;;12.10;99.90;;;;;;4937256;28;20189;-84
2022/11/23 11:56:44;;;;;;;3.95;1.20;;;12.10;99.90;;;;;;4954370;28;20166;-83
2022/11/23 11:59:33;;;;;;;7.88;2.10;;;11.90;99.90;;;;;;4954177;28;20198;-82
2022/11/23 12:02:02;;;;;;;5.65;1.58;;;11.90;99.90;;;;;;4954263;28;20527;-83
2022/11/23 12:05:00;;;;;;;8.32;1.30;;;11.80;99.90;;;;;;4954159;28;20313;-85
2022/11/23 12:07:59;;;;;;;5.38;1.60;;;11.90;99.90;;;;;;4932434;28;20656;-82
2022/11/23 12:10:37;;;;;;;5.65;1.40;;;11.80;99.90;;;;;;4953950;28;20198;-83
2022/11/23 12:13:03;;;;;;;15.75;1.63;;;11.80;99.90;;;;;;4937118;29;20656;-84
2022/11/23 12:15:39;;;;;;;2.38;1.15;;;11.90;99.90;;;;;;4937052;28;20193;-83
2022/11/23 12:18:13;;;;;;;2.53;1.00;;;11.60;99.90;;;;;;4936607;29;20213;-84
2022/11/23 12:21:17;;;;;;;3.25;1.10;;;11.50;99.90;;;;;;4936987;28;20618;-86
2022/11/23 12:24:10;;;;;;;9.18;1.20;;;11.50;99.90;;;;;;4958320;28;20616;-83
2022/11/23 12:27:04;;;;;;;5.60;1.30;;;11.50;99.90;;;;;;4957332;28;20167;-80
2022/11/23 12:29:54;;;;;;;5.85;1.20;;;11.30;99.90;;;;;;4954991;28;20206;-81
2022/11/23 12:32:44;;;;;;;3.92;1.23;;;11.10;99.90;;;;;;4957123;28;20675;-81
2022/11/23 12:35:34;;;;;;;4.38;1.30;;;10.90;99.90;;;;;;4957025;28;20277;-81
2022/11/23 12:38:22;;;;;;;3.65;0.98;;;10.80;99.90;;;;;;4956670;28;20253;-81
2022/11/23 12:41:15;;;;;;;9.95;1.60;;;10.80;99.90;;;;;;4939508;29;20201;-80
2022/11/23 12:44:05;;;;;;;2.45;1.13;;;10.90;99.90;;;;;;4956706;28;20171;-80
2022/11/23 12:46:48;;;;;;;3.67;1.27;;;10.70;99.90;;;;;;4956842;28;20170;-80
2022/11/23 12:49:50;;;;;;;12.25;1.35;;;10.60;99.90;;;;;;4956491;28;20210;-80
2022/11/23 12:52:46;;;;;;;3.72;1.35;;;10.80;99.90;;;;;;4938290;29;20221;-81
2022/11/23 12:55:14;;;;;;;4.97;1.25;;;10.70;99.90;;;;;;4956887;28;20192;-83